createdAt,value
2023-02-21T00:01:33.678Z,4.10
2023-02-21T00:03:14.994Z,3.70
2023-02-21T00:04:55.820Z,5.57
2023-02-21T00:06:36.496Z,3.30
2023-02-21T00:08:17.516Z,4.00
2023-02-21T00:09:58.424Z,4.28
2023-02-21T00:11:39.504Z,4.35
2023-02-21T00:13:21.694Z,3.53
2023-02-21T00:15:04.191Z,3.03
2023-02-21T00:16:45.179Z,4.38
2023-02-21T00:18:26.376Z,3.63
2023-02-21T00:20:07.296Z,3.97
2023-02-21T00:21:48.742Z,3.35
2023-02-21T00:23:29.841Z,4.68
2023-02-21T00:25:10.644Z,3.20
2023-02-21T00:26:51.499Z,3.60
2023-02-21T00:28:32.763Z,4.00
2023-02-21T00:30:15.253Z,3.70
2023-02-21T00:31:56.316Z,4.00
2023-02-21T00:33:37.300Z,3.00
2023-02-21T00:35:18.387Z,3.20
2023-02-21T00:36:59.372Z,3.50
2023-02-21T00:38:40.599Z,3.75
2023-02-21T00:40:21.972Z,3.80
2023-02-21T00:42:02.927Z,3.80
2023-02-21T00:43:49.419Z,3.80
2023-02-21T00:45:31.401Z,3.30
2023-02-21T00:47:12.405Z,3.15
2023-02-21T00:48:53.558Z,3.90
2023-02-21T00:50:34.962Z,4.38
2023-02-21T00:52:16.039Z,4.40
2023-02-21T00:53:57.098Z,4.18
2023-02-21T00:55:37.988Z,4.63
2023-02-21T00:57:19.072Z,5.03
2023-02-21T00:59:00.202Z,5.50
2023-02-21T01:00:43.579Z,4.72
2023-02-21T01:02:24.754Z,4.40
2023-02-21T01:04:05.901Z,4.60
2023-02-21T01:05:46.979Z,4.10
2023-02-21T01:07:28.070Z,3.80
2023-02-21T01:09:08.845Z,4.78
2023-02-21T01:10:49.629Z,5.05
2023-02-21T01:12:30.710Z,4.38
2023-02-21T01:14:13.233Z,5.82
2023-02-21T01:15:55.593Z,3.95
2023-02-21T01:17:36.396Z,5.13
2023-02-21T01:19:17.425Z,4.93
2023-02-21T01:20:58.545Z,5.78
2023-02-21T01:22:39.266Z,4.32
2023-02-21T01:24:20.479Z,4.75
2023-02-21T01:26:01.598Z,3.70
2023-02-21T01:27:42.681Z,3.63
2023-02-21T01:29:24.155Z,5.65
2023-02-21T01:31:06.822Z,6.47
2023-02-21T01:32:47.734Z,8.02
2023-02-21T01:34:28.533Z,5.10
2023-02-21T01:36:09.579Z,6.03
2023-02-21T01:37:50.508Z,5.78
2023-02-21T01:39:32.014Z,4.75
2023-02-21T01:41:13.127Z,5.22
2023-02-21T01:42:54.488Z,4.97
2023-02-21T01:44:52.136Z,5.32
2023-02-21T01:46:36.718Z,4.72
2023-02-21T01:48:17.841Z,4.40
2023-02-21T01:50:00.772Z,5.18
2023-02-21T01:51:44.201Z,4.90
2023-02-21T01:53:29.227Z,4.55
2023-02-21T01:55:12.707Z,4.53
2023-02-21T01:56:54.398Z,4.78
2023-02-21T01:58:35.229Z,4.85
2023-02-21T02:00:17.429Z,4.22
2023-02-21T02:02:05.962Z,4.82
2023-02-21T02:03:47.021Z,4.45
2023-02-21T02:05:29.100Z,4.28
2023-02-21T02:07:10.294Z,4.03
2023-02-21T02:08:51.854Z,4.05
2023-02-21T02:10:33.164Z,4.53
2023-02-21T02:12:24.796Z,4.18
2023-02-21T02:14:03.063Z,4.55
2023-02-21T02:15:54.459Z,4.30
2023-02-21T02:17:25.076Z,4.32
2023-02-21T02:19:09.054Z,4.28
2023-02-21T02:21:13.724Z,4.82
2023-02-21T02:23:02.387Z,4.60
2023-02-21T02:24:45.586Z,4.88
2023-02-21T02:26:41.943Z,4.65
2023-02-21T02:28:26.859Z,4.20
2023-02-21T02:30:14.883Z,4.70
2023-02-21T02:31:44.877Z,5.05
2023-02-21T02:33:42.310Z,4.88
2023-02-21T02:35:09.991Z,4.60
2023-02-21T02:36:37.715Z,5.28
2023-02-21T02:38:03.564Z,6.05
2023-02-21T02:39:33.113Z,4.78
2023-02-21T02:41:00.195Z,5.03
2023-02-21T02:42:32.607Z,5.55
2023-02-21T02:43:59.250Z,5.40
2023-02-21T02:45:27.843Z,5.13
2023-02-21T02:46:51.849Z,5.32
2023-02-21T02:48:17.041Z,5.18
2023-02-21T02:49:46.267Z,5.10
2023-02-21T02:51:13.842Z,5.50
2023-02-21T02:52:36.880Z,5.53
2023-02-21T02:54:00.480Z,5.82
2023-02-21T02:55:31.270Z,5.68
2023-02-21T02:56:54.734Z,6.32
2023-02-21T02:58:19.260Z,5.65
2023-02-21T02:59:45.401Z,5.22
2023-02-21T03:01:23.409Z,4.97
2023-02-21T03:03:03.525Z,6.20
2023-02-21T03:04:51.269Z,5.65
2023-02-21T03:06:31.394Z,5.15
2023-02-21T03:07:59.978Z,5.80
2023-02-21T03:09:29.328Z,6.25
2023-02-21T03:10:59.779Z,6.20
2023-02-21T03:12:29.463Z,5.65
2023-02-21T03:13:55.999Z,5.90
2023-02-21T03:15:21.851Z,5.18
2023-02-21T03:16:47.441Z,6.05
2023-02-21T03:18:17.413Z,5.18
2023-02-21T03:19:42.229Z,5.60
2023-02-21T03:21:08.873Z,6.47
2023-02-21T03:22:34.094Z,5.00
2023-02-21T03:24:01.578Z,5.97
2023-02-21T03:25:25.745Z,5.50
2023-02-21T03:26:49.844Z,5.85
2023-02-21T03:28:13.663Z,5.70
2023-02-21T03:29:37.206Z,5.57
2023-02-21T03:31:01.750Z,5.10
2023-02-21T03:32:26.330Z,6.13
2023-02-21T03:33:49.720Z,4.75
2023-02-21T03:35:12.807Z,6.10
2023-02-21T03:36:37.095Z,4.90
2023-02-21T03:38:00.902Z,6.00
2023-02-21T03:39:24.250Z,5.53
2023-02-21T03:40:47.776Z,5.82
2023-02-21T03:42:10.178Z,5.18
2023-02-21T03:43:33.559Z,5.60
2023-02-21T03:44:56.937Z,6.10
2023-02-21T03:46:20.461Z,5.00
2023-02-21T03:47:42.866Z,5.53
2023-02-21T03:49:06.220Z,5.55
2023-02-21T03:50:29.746Z,5.82
2023-02-21T03:51:52.340Z,5.78
2023-02-21T03:53:17.140Z,6.30
2023-02-21T03:54:40.628Z,5.97
2023-02-21T03:56:04.131Z,5.82
2023-02-21T03:57:29.055Z,5.13
2023-02-21T03:58:52.477Z,6.40
2023-02-21T04:00:16.738Z,5.68
2023-02-21T04:01:39.120Z,5.65
2023-02-21T04:03:02.559Z,5.65
2023-02-21T04:04:25.057Z,6.40
2023-02-21T04:05:48.482Z,5.93
2023-02-21T04:07:12.550Z,6.07
2023-02-21T04:08:37.536Z,5.80
2023-02-21T04:10:00.970Z,5.90
2023-02-21T04:11:23.711Z,5.85
2023-02-21T04:12:47.134Z,7.03
2023-02-21T04:14:10.720Z,6.47
2023-02-21T04:15:34.103Z,5.30
2023-02-21T04:16:56.572Z,6.40
2023-02-21T04:18:19.951Z,6.40
2023-02-21T04:19:42.416Z,5.35
2023-02-21T04:21:06.066Z,6.32
2023-02-21T04:22:29.423Z,5.57
2023-02-21T04:23:54.141Z,6.50
2023-02-21T04:25:16.930Z,6.15
2023-02-21T04:26:40.301Z,6.35
2023-02-21T04:28:02.717Z,5.55
2023-02-21T04:29:26.253Z,5.93
2023-02-21T04:30:48.661Z,6.55
2023-02-21T04:32:12.760Z,6.00
2023-02-21T04:33:35.247Z,6.53
2023-02-21T04:34:58.603Z,6.63
2023-02-21T04:36:22.123Z,5.45
2023-02-21T04:37:45.075Z,6.28
2023-02-21T04:39:10.346Z,5.75
2023-02-21T04:40:32.740Z,6.03
2023-02-21T04:41:56.151Z,5.72
2023-02-21T04:43:21.074Z,5.65
2023-02-21T04:44:49.093Z,6.20
2023-02-21T04:46:21.789Z,6.70
2023-02-21T04:47:45.204Z,6.13
2023-02-21T04:49:07.676Z,6.05
2023-02-21T04:50:31.313Z,6.15
2023-02-21T04:51:54.734Z,6.50
2023-02-21T04:53:18.344Z,7.40
2023-02-21T04:54:42.104Z,7.00
2023-02-21T04:56:05.935Z,6.65
2023-02-21T04:57:29.319Z,6.80
2023-02-21T04:58:52.324Z,7.05
2023-02-21T05:00:17.165Z,6.13
2023-02-21T05:01:39.567Z,6.80
2023-02-21T05:03:03.026Z,7.03
2023-02-21T05:04:28.550Z,6.40
2023-02-21T05:05:52.081Z,6.82
2023-02-21T05:07:15.458Z,6.68
2023-02-21T05:08:37.884Z,6.57
2023-02-21T05:10:05.608Z,5.85
2023-02-21T05:11:29.193Z,7.00
2023-02-21T05:12:52.555Z,7.20
2023-02-21T05:14:17.728Z,6.38
2023-02-21T05:15:40.153Z,6.97
2023-02-21T05:17:03.498Z,7.30
2023-02-21T05:18:28.764Z,7.00
2023-02-21T05:19:52.397Z,6.35
2023-02-21T05:21:17.184Z,7.00
2023-02-21T05:22:40.386Z,6.97
2023-02-21T05:24:04.585Z,6.53
2023-02-21T05:25:29.352Z,7.20
2023-02-21T05:26:54.080Z,6.25
2023-02-21T05:28:16.532Z,6.88
2023-02-21T05:29:39.948Z,6.80
2023-02-21T05:31:02.561Z,6.65
2023-02-21T05:32:29.684Z,7.03
2023-02-21T05:33:53.113Z,6.60
2023-02-21T05:35:17.800Z,6.82
2023-02-21T05:36:41.584Z,7.40
2023-02-21T05:38:05.791Z,6.90
2023-02-21T05:39:29.216Z,6.68
2023-02-21T05:40:53.328Z,6.70
2023-02-21T05:42:16.804Z,6.65
2023-02-21T05:43:39.384Z,6.78
2023-02-21T05:45:02.956Z,6.75
2023-02-21T05:46:27.820Z,6.75
2023-02-21T05:47:50.260Z,6.03
2023-02-21T05:49:14.010Z,7.32
2023-02-21T05:50:36.576Z,6.97
2023-02-21T05:51:59.961Z,6.30
2023-02-21T05:53:22.384Z,6.15
2023-02-21T05:54:45.990Z,6.82
2023-02-21T05:56:10.681Z,7.43
2023-02-21T05:57:39.830Z,7.07
2023-02-21T05:59:03.193Z,6.25
2023-02-21T06:00:28.663Z,6.68
2023-02-21T06:01:52.572Z,6.13
2023-02-21T06:03:15.933Z,6.90
2023-02-21T06:04:39.310Z,6.18
2023-02-21T06:06:02.238Z,6.78
2023-02-21T06:07:25.616Z,7.28
2023-02-21T06:08:50.241Z,5.97
2023-02-21T06:10:14.124Z,5.60
2023-02-21T06:11:42.114Z,6.50
2023-02-21T06:13:05.501Z,6.40
2023-02-21T06:14:27.881Z,6.63
2023-02-21T06:15:51.296Z,6.22
2023-02-21T06:17:13.714Z,6.70
2023-02-21T06:18:37.084Z,6.05
2023-02-21T06:20:00.516Z,5.75
2023-02-21T06:21:24.100Z,6.45
2023-02-21T06:22:48.095Z,5.22
2023-02-21T06:24:12.340Z,5.43
2023-02-21T06:25:34.752Z,5.88
2023-02-21T06:26:59.589Z,5.90
2023-02-21T06:28:22.866Z,5.30
2023-02-21T06:29:46.253Z,5.32
2023-02-21T06:31:09.806Z,5.72
2023-02-21T06:32:33.326Z,5.75
2023-02-21T06:33:56.944Z,5.50
2023-02-21T06:35:20.303Z,5.50
2023-02-21T06:36:43.686Z,5.82
2023-02-21T06:38:07.093Z,5.80
2023-02-21T06:39:30.720Z,5.45
2023-02-21T06:40:54.120Z,5.35
2023-02-21T06:42:19.277Z,5.68
2023-02-21T06:43:49.569Z,6.40
2023-02-21T06:45:13.779Z,5.70
2023-02-21T06:46:38.861Z,5.88
2023-02-21T06:48:01.246Z,6.10
2023-02-21T06:49:24.599Z,5.60
2023-02-21T06:50:50.872Z,5.07
2023-02-21T06:52:13.530Z,5.00
2023-02-21T06:53:36.965Z,5.03
2023-02-21T06:55:00.429Z,5.38
2023-02-21T06:56:23.985Z,4.72
2023-02-21T06:57:48.752Z,4.78
2023-02-21T06:59:12.422Z,5.47
2023-02-21T07:00:36.066Z,4.53
2023-02-21T07:02:05.762Z,5.32
2023-02-21T07:03:29.254Z,4.50
2023-02-21T07:04:52.971Z,5.80
2023-02-21T07:06:16.612Z,4.30
2023-02-21T07:07:40.012Z,4.60
2023-02-21T07:09:06.471Z,4.20
2023-02-21T07:10:30.312Z,4.50
2023-02-21T07:11:53.665Z,4.30
2023-02-21T07:13:19.694Z,4.25
2023-02-21T07:14:44.380Z,4.47
2023-02-21T07:16:08.420Z,4.40
2023-02-21T07:17:31.854Z,4.78
2023-02-21T07:18:57.305Z,4.13
2023-02-21T07:20:20.761Z,4.53
2023-02-21T07:21:44.203Z,4.25
2023-02-21T07:23:07.592Z,5.05
2023-02-21T07:24:32.477Z,4.75
2023-02-21T07:25:55.852Z,4.43
2023-02-21T07:27:22.264Z,4.32
2023-02-21T07:28:49.238Z,3.88
2023-02-21T07:30:14.050Z,4.78
2023-02-21T07:31:37.594Z,4.57
2023-02-21T07:33:01.114Z,4.43
2023-02-21T07:34:24.539Z,4.50
2023-02-21T07:35:47.972Z,3.75
2023-02-21T07:37:12.055Z,2.80
2023-02-21T07:38:34.445Z,3.80
2023-02-21T07:39:58.061Z,3.35
2023-02-21T07:41:21.635Z,3.15
2023-02-21T07:42:45.282Z,3.17
2023-02-21T07:44:10.562Z,3.22
2023-02-21T07:45:33.941Z,3.35
2023-02-21T07:46:57.834Z,3.03
2023-02-21T07:48:21.258Z,3.05
2023-02-21T07:49:44.662Z,2.83
2023-02-21T07:51:09.455Z,3.05
2023-02-21T07:52:33.643Z,3.10
2023-02-21T07:53:57.083Z,3.03
2023-02-21T07:55:21.680Z,2.70
2023-02-21T07:56:45.813Z,2.88
2023-02-21T07:58:09.252Z,3.33
2023-02-21T07:59:34.038Z,2.88
2023-02-21T08:00:57.500Z,2.90
2023-02-21T08:02:21.051Z,2.80
2023-02-21T08:03:44.462Z,3.03
2023-02-21T08:05:09.152Z,2.65
2023-02-21T08:06:32.739Z,2.55
2023-02-21T08:07:56.988Z,2.85
2023-02-21T08:09:20.388Z,2.40
2023-02-21T08:10:43.775Z,2.13
2023-02-21T08:12:07.599Z,2.25
2023-02-21T08:13:30.956Z,2.35
2023-02-21T08:14:55.728Z,2.30
2023-02-21T08:16:19.139Z,2.53
2023-02-21T08:17:42.671Z,2.55
2023-02-21T08:19:06.072Z,2.22
2023-02-21T08:20:29.675Z,1.83
2023-02-21T08:21:53.252Z,1.75
2023-02-21T08:23:18.273Z,1.50
2023-02-21T08:24:41.690Z,1.80
2023-02-21T08:26:08.841Z,1.95
2023-02-21T08:27:32.216Z,1.77
2023-02-21T08:28:55.662Z,1.52
2023-02-21T08:30:20.614Z,1.58
2023-02-21T08:31:45.634Z,1.30
2023-02-21T08:33:09.084Z,1.00
2023-02-21T08:34:32.488Z,1.02
2023-02-21T08:35:56.119Z,0.88
2023-02-21T08:37:20.198Z,0.90
2023-02-21T08:38:43.588Z,0.80
2023-02-21T08:40:06.446Z,0.75
2023-02-21T08:41:38.412Z,1.05
2023-02-21T08:43:02.302Z,1.17
2023-02-21T08:44:25.702Z,0.88
2023-02-21T08:45:50.457Z,0.85
2023-02-21T08:47:14.284Z,1.05
2023-02-21T08:48:37.844Z,1.10
2023-02-21T08:50:01.384Z,0.88
2023-02-21T08:51:26.844Z,0.82
2023-02-21T08:52:51.489Z,0.98
2023-02-21T08:54:14.897Z,0.85
2023-02-21T08:55:38.620Z,0.80
2023-02-21T08:57:02.043Z,1.00
2023-02-21T08:58:25.474Z,1.05
2023-02-21T08:59:50.141Z,0.98
2023-02-21T09:01:15.497Z,0.95
2023-02-21T09:02:40.858Z,1.15
2023-02-21T09:04:05.147Z,1.52
2023-02-21T09:05:29.926Z,0.80
2023-02-21T09:06:53.418Z,0.98
2023-02-21T09:08:20.718Z,1.00
2023-02-21T09:09:44.133Z,0.90
2023-02-21T09:11:07.932Z,1.30
2023-02-21T09:12:31.360Z,1.00
2023-02-21T09:13:55.678Z,0.90
2023-02-21T09:15:19.563Z,1.33
2023-02-21T09:16:47.631Z,0.82
2023-02-21T09:18:13.541Z,0.85
2023-02-21T09:19:38.742Z,1.02
2023-02-21T09:21:02.190Z,1.20
2023-02-21T09:22:25.795Z,1.10
2023-02-21T09:23:49.242Z,1.50
2023-02-21T09:25:13.228Z,1.77
2023-02-21T09:26:36.590Z,1.10
2023-02-21T09:28:00.524Z,1.10
2023-02-21T09:29:26.568Z,1.48
2023-02-21T09:30:51.902Z,1.20
2023-02-21T09:32:16.745Z,1.20
2023-02-21T09:33:42.645Z,1.10
2023-02-21T09:35:06.618Z,1.05
2023-02-21T09:36:29.997Z,1.15
2023-02-21T09:37:53.435Z,1.25
2023-02-21T09:39:17.017Z,0.63
2023-02-21T09:40:43.654Z,1.40
2023-02-21T09:42:09.773Z,1.20
2023-02-21T09:43:35.009Z,0.80
2023-02-21T09:44:58.577Z,1.10
2023-02-21T09:46:29.892Z,3.58
2023-02-21T09:47:56.476Z,1.42
2023-02-21T09:49:25.869Z,1.45
2023-02-21T09:50:52.791Z,0.85
2023-02-21T09:52:22.372Z,1.10
2023-02-21T09:53:47.633Z,1.40
2023-02-21T09:55:16.206Z,0.85
2023-02-21T09:56:41.369Z,1.02
2023-02-21T09:58:07.100Z,2.47
2023-02-21T09:59:31.031Z,1.92
2023-02-21T10:00:54.730Z,1.58
2023-02-21T10:02:41.700Z,1.98
2023-02-21T10:04:15.156Z,2.67
2023-02-21T10:05:45.147Z,5.72
2023-02-21T10:07:12.538Z,1.48
2023-02-21T10:08:43.066Z,4.65
2023-02-21T10:10:10.871Z,4.65
2023-02-21T10:11:43.901Z,0.90
2023-02-21T10:13:16.200Z,3.63
2023-02-21T10:14:50.164Z,5.43
2023-02-21T10:16:17.486Z,2.35
2023-02-21T10:17:45.897Z,1.10
2023-02-21T10:19:15.651Z,2.42
2023-02-21T10:20:42.788Z,1.38
2023-02-21T10:22:14.572Z,1.13
2023-02-21T10:23:42.199Z,0.68
2023-02-21T10:25:13.821Z,1.77
2023-02-21T10:26:41.184Z,1.85
2023-02-21T10:28:03.660Z,0.80
2023-02-21T10:29:31.506Z,1.35
2023-02-21T10:31:02.684Z,0.90
2023-02-21T10:32:29.036Z,0.70
2023-02-21T10:33:52.679Z,1.13
2023-02-21T10:35:19.028Z,2.25
2023-02-21T10:36:42.387Z,1.42
2023-02-21T10:38:08.465Z,1.02
2023-02-21T10:39:35.947Z,0.80
2023-02-21T10:41:02.437Z,0.95
2023-02-21T10:42:32.141Z,3.13
2023-02-21T10:44:01.363Z,3.30
2023-02-21T10:45:31.630Z,6.30
2023-02-21T10:46:59.742Z,2.03
2023-02-21T10:48:27.081Z,2.50
2023-02-21T10:49:58.902Z,2.28
2023-02-21T10:51:32.858Z,6.53
2023-02-21T10:52:56.311Z,0.85
2023-02-21T10:54:21.570Z,1.17
2023-02-21T10:55:47.094Z,0.70
2023-02-21T10:57:12.832Z,2.15
2023-02-21T10:58:36.441Z,1.55
2023-02-21T11:00:00.217Z,2.28
2023-02-21T11:01:30.600Z,1.10
2023-02-21T11:02:57.437Z,2.35
2023-02-21T11:04:30.034Z,0.85
2023-02-21T11:05:54.592Z,2.50
2023-02-21T11:07:19.424Z,1.25
2023-02-21T11:08:44.295Z,1.52
2023-02-21T11:10:29.393Z,1.17
2023-02-21T11:12:02.988Z,1.27
2023-02-21T11:13:28.479Z,0.75
2023-02-21T11:15:17.886Z,2.65
2023-02-21T11:16:41.352Z,3.38
2023-02-21T11:18:14.674Z,1.45
2023-02-21T11:19:53.164Z,2.40
2023-02-21T11:21:19.160Z,1.60
2023-02-21T11:22:49.096Z,2.75
2023-02-21T11:24:14.010Z,2.25
2023-02-21T11:25:41.353Z,1.52
2023-02-21T11:27:03.813Z,1.95
2023-02-21T11:28:27.733Z,1.30
2023-02-21T11:29:52.564Z,1.73
2023-02-21T11:31:18.817Z,3.63
2023-02-21T11:32:45.577Z,2.75
2023-02-21T11:34:11.514Z,2.88
2023-02-21T11:35:37.159Z,3.45
2023-02-21T11:37:06.603Z,4.35
2023-02-21T11:38:36.466Z,1.95
2023-02-21T11:40:01.628Z,1.77
2023-02-21T11:41:32.530Z,1.00
2023-02-21T11:43:12.577Z,1.70
2023-02-21T11:44:37.843Z,1.75
2023-02-21T11:46:16.334Z,1.83
2023-02-21T11:47:44.664Z,1.58
2023-02-21T11:49:13.285Z,1.33
2023-02-21T11:50:46.647Z,1.17
2023-02-21T11:52:12.472Z,1.67
2023-02-21T11:53:40.825Z,1.35
2023-02-21T11:55:06.560Z,1.67
2023-02-21T11:56:39.433Z,1.70
2023-02-21T11:58:08.247Z,0.88
2023-02-21T11:59:40.696Z,0.85
2023-02-21T12:01:07.497Z,1.33
2023-02-21T12:02:58.413Z,1.45
2023-02-21T12:04:32.043Z,2.30
2023-02-21T12:05:59.610Z,1.35
2023-02-21T12:07:30.534Z,2.38
2023-02-21T12:09:00.190Z,2.33
2023-02-21T12:10:34.362Z,3.00
2023-02-21T12:12:06.377Z,2.03
2023-02-21T12:13:35.952Z,1.45
2023-02-21T12:15:09.158Z,1.80
2023-02-21T12:16:42.443Z,1.85
2023-02-21T12:18:24.114Z,1.60
2023-02-21T12:20:09.789Z,1.27
2023-02-21T12:21:57.068Z,1.83
2023-02-21T12:23:26.744Z,3.03
2023-02-21T12:25:00.744Z,5.03
2023-02-21T12:26:44.399Z,2.92
2023-02-21T12:28:20.093Z,1.40
2023-02-21T12:29:56.115Z,2.30
2023-02-21T12:31:27.979Z,2.13
2023-02-21T12:32:53.053Z,1.77
2023-02-21T12:34:26.790Z,2.65
2023-02-21T12:36:16.564Z,1.42
2023-02-21T12:37:45.484Z,1.73
2023-02-21T12:39:25.483Z,2.00
2023-02-21T12:40:57.658Z,2.60
2023-02-21T12:42:35.153Z,2.47
2023-02-21T12:44:04.061Z,2.97
2023-02-21T12:45:51.567Z,1.63
2023-02-21T12:47:19.883Z,1.70
2023-02-21T12:48:45.720Z,1.58
2023-02-21T12:50:18.103Z,1.17
2023-02-21T12:51:47.045Z,1.67
2023-02-21T12:53:14.841Z,1.38
2023-02-21T12:54:42.116Z,1.85
2023-02-21T12:56:09.181Z,2.08
2023-02-21T12:57:37.836Z,1.52
2023-02-21T12:59:04.633Z,2.08
2023-02-21T13:00:30.853Z,1.63
2023-02-21T13:01:56.578Z,1.50
2023-02-21T13:03:34.212Z,2.03
2023-02-21T13:05:00.018Z,1.88
2023-02-21T13:06:31.379Z,1.60
2023-02-21T13:08:00.204Z,1.25
2023-02-21T13:09:29.617Z,1.85
2023-02-21T13:10:56.476Z,2.10
2023-02-21T13:12:23.248Z,1.42
2023-02-21T13:13:46.828Z,1.85
2023-02-21T13:15:19.545Z,2.60
2023-02-21T13:16:42.945Z,2.40
2023-02-21T13:18:08.853Z,1.20
2023-02-21T13:19:38.307Z,1.48
2023-02-21T13:21:07.319Z,1.35
2023-02-21T13:23:25.893Z,1.23
2023-02-21T13:24:55.374Z,1.90
2023-02-21T13:26:29.029Z,1.17
2023-02-21T13:27:57.639Z,1.10
2023-02-21T13:29:24.073Z,1.00
2023-02-21T13:30:49.461Z,1.80
2023-02-21T13:32:17.095Z,1.92
2023-02-21T13:33:44.447Z,1.60
2023-02-21T13:35:09.822Z,1.45
2023-02-21T13:36:41.529Z,1.48
2023-02-21T13:38:07.937Z,1.02
2023-02-21T13:39:36.558Z,1.65
2023-02-21T13:41:09.899Z,1.42
2023-02-21T13:42:34.886Z,1.70
2023-02-21T13:44:00.804Z,1.90
2023-02-21T13:45:26.882Z,1.85
2023-02-21T13:47:13.960Z,1.67
2023-02-21T13:48:37.444Z,1.95
2023-02-21T13:50:02.165Z,1.48
2023-02-21T13:51:46.904Z,2.08
2023-02-21T13:53:16.677Z,2.35
2023-02-21T13:55:22.089Z,1.15
2023-02-21T13:56:46.035Z,1.00
2023-02-21T13:58:33.878Z,1.50
2023-02-21T13:59:58.634Z,1.88
2023-02-21T14:01:47.169Z,1.30
2023-02-21T14:03:33.215Z,2.10
2023-02-21T14:05:06.336Z,1.75
2023-02-21T14:06:38.103Z,1.27
2023-02-21T14:08:03.937Z,1.30
2023-02-21T14:09:27.840Z,1.73
2023-02-21T14:10:52.501Z,1.48
2023-02-21T14:12:17.040Z,2.83
2023-02-21T14:13:42.041Z,1.80
2023-02-21T14:15:10.272Z,1.80
2023-02-21T14:16:35.899Z,1.33
2023-02-21T14:18:01.454Z,1.30
2023-02-21T14:19:27.836Z,1.60
2023-02-21T14:20:55.117Z,1.88
2023-02-21T14:22:22.417Z,2.00
2023-02-21T14:23:50.469Z,1.33
2023-02-21T14:25:19.835Z,1.75
2023-02-21T14:26:45.749Z,1.58
2023-02-21T14:28:42.317Z,1.80
2023-02-21T14:30:30.327Z,5.10
2023-02-21T14:31:58.198Z,2.92
2023-02-21T14:33:26.933Z,2.10
2023-02-21T14:34:55.544Z,3.13
2023-02-21T14:36:19.063Z,1.98
2023-02-21T14:37:45.057Z,2.92
2023-02-21T14:39:08.764Z,2.38
2023-02-21T14:40:41.973Z,3.20
2023-02-21T14:42:20.542Z,2.33
2023-02-21T14:43:58.219Z,1.42
2023-02-21T14:45:44.777Z,1.60
2023-02-21T14:47:38.798Z,2.65
2023-02-21T14:49:43.615Z,1.75
2023-02-21T14:51:38.253Z,3.83
2023-02-21T14:53:41.479Z,2.58
2023-02-21T14:55:43.899Z,1.55
2023-02-21T14:57:35.426Z,1.60
2023-02-21T14:59:30.781Z,1.20
2023-02-21T15:01:01.744Z,1.40
2023-02-21T15:02:31.763Z,2.28
2023-02-21T15:04:01.051Z,2.15
2023-02-21T15:05:29.310Z,2.58
2023-02-21T15:07:03.260Z,2.60
2023-02-21T15:08:27.751Z,1.98
2023-02-21T15:10:12.733Z,2.50
2023-02-21T15:11:41.516Z,2.00
2023-02-21T15:13:05.914Z,2.28
2023-02-21T15:14:31.103Z,2.17
2023-02-21T15:15:59.550Z,2.25
2023-02-21T15:17:25.274Z,2.63
2023-02-21T15:19:01.350Z,1.95
2023-02-21T15:20:24.729Z,1.85
2023-02-21T15:21:48.123Z,2.47
2023-02-21T15:23:16.100Z,1.92
2023-02-21T15:24:39.448Z,2.55
2023-02-21T15:26:13.407Z,2.22
2023-02-21T15:27:37.627Z,2.75
2023-02-21T15:29:08.798Z,5.03
2023-02-21T15:30:39.551Z,2.17
2023-02-21T15:32:03.731Z,2.95
2023-02-21T15:33:28.041Z,4.13
2023-02-21T15:34:55.316Z,3.03
2023-02-21T15:36:21.319Z,3.42
2023-02-21T15:37:45.921Z,2.03
2023-02-21T15:39:19.267Z,2.80
2023-02-21T15:40:43.027Z,3.17
2023-02-21T15:42:09.349Z,2.83
2023-02-21T15:43:43.688Z,2.80
2023-02-21T15:45:09.968Z,2.33
2023-02-21T15:46:36.298Z,2.38
2023-02-21T15:47:59.876Z,2.40
2023-02-21T15:49:25.353Z,2.15
2023-02-21T15:50:51.086Z,2.30
2023-02-21T15:52:32.249Z,2.28
2023-02-21T15:54:23.377Z,2.25
2023-02-21T15:55:48.189Z,1.98
2023-02-21T15:57:24.641Z,2.08
2023-02-21T15:59:14.074Z,2.08
2023-02-21T16:00:39.152Z,3.00
2023-02-21T16:02:14.477Z,1.85
2023-02-21T16:03:40.760Z,2.13
2023-02-21T16:05:03.688Z,2.40
2023-02-21T16:06:29.561Z,2.50
2023-02-21T16:07:54.125Z,2.13
2023-02-21T16:09:25.558Z,2.17
2023-02-21T16:10:49.187Z,2.40
2023-02-21T16:12:26.525Z,2.20
2023-02-21T16:13:49.914Z,1.98
2023-02-21T16:15:24.584Z,2.10
2023-02-21T16:16:49.585Z,7.95
2023-02-21T16:18:19.054Z,2.15
2023-02-21T16:19:43.092Z,1.42
2023-02-21T16:21:08.793Z,2.38
2023-02-21T16:22:53.833Z,2.38
2023-02-21T16:24:31.066Z,2.63
2023-02-21T16:26:00.285Z,2.67
2023-02-21T16:27:23.673Z,2.78
2023-02-21T16:28:47.652Z,2.10
2023-02-21T16:30:15.028Z,2.00
2023-02-21T16:31:39.909Z,2.08
2023-02-21T16:33:05.492Z,2.53
2023-02-21T16:34:32.329Z,2.60
2023-02-21T16:35:56.121Z,2.28
2023-02-21T16:37:19.526Z,2.53
2023-02-21T16:38:44.270Z,2.00
2023-02-21T16:40:14.562Z,2.28
2023-02-21T16:41:37.937Z,2.22
2023-02-21T16:43:02.046Z,2.90
2023-02-21T16:44:25.675Z,2.33
2023-02-21T16:45:51.748Z,2.63
2023-02-21T16:47:16.003Z,2.60
2023-02-21T16:48:39.415Z,2.75
2023-02-21T16:50:01.828Z,3.22
2023-02-21T16:51:25.498Z,2.13
2023-02-21T16:52:49.024Z,2.20
2023-02-21T16:54:14.162Z,2.28
2023-02-21T16:55:37.612Z,2.50
2023-02-21T16:57:01.070Z,2.35
2023-02-21T16:58:27.955Z,2.33
2023-02-21T16:59:51.386Z,2.65
2023-02-21T17:01:18.943Z,3.20
2023-02-21T17:02:42.626Z,2.20
2023-02-21T17:04:06.971Z,2.65
2023-02-21T17:05:30.683Z,2.50
2023-02-21T17:06:57.826Z,1.88
2023-02-21T17:08:21.469Z,2.72
2023-02-21T17:09:46.228Z,2.42
2023-02-21T17:11:09.668Z,2.22
2023-02-21T17:12:33.104Z,2.65
2023-02-21T17:13:56.555Z,2.65
2023-02-21T17:15:21.647Z,2.60
2023-02-21T17:16:45.876Z,2.42
2023-02-21T17:18:09.284Z,2.28
2023-02-21T17:19:32.842Z,2.38
2023-02-21T17:20:56.304Z,2.53
2023-02-21T17:22:19.681Z,2.80
2023-02-21T17:23:43.260Z,2.88
2023-02-21T17:25:16.682Z,2.70
2023-02-21T17:26:40.159Z,3.28
2023-02-21T17:28:03.701Z,2.22
2023-02-21T17:29:27.179Z,2.75
2023-02-21T17:30:50.743Z,2.50
2023-02-21T17:32:16.131Z,2.80
2023-02-21T17:33:40.155Z,3.38
2023-02-21T17:35:03.593Z,3.00
2023-02-21T17:36:28.433Z,2.78
2023-02-21T17:37:51.868Z,3.05
2023-02-21T17:39:17.457Z,2.72
2023-02-21T17:40:42.233Z,2.22
2023-02-21T17:42:12.144Z,2.95
2023-02-21T17:43:35.676Z,2.72
2023-02-21T17:45:00.143Z,2.60
2023-02-21T17:46:23.771Z,2.78
2023-02-21T17:47:47.299Z,3.13
2023-02-21T17:49:10.709Z,2.70
2023-02-21T17:50:34.071Z,3.08
2023-02-21T17:51:57.540Z,2.60
2023-02-21T17:53:21.609Z,3.00
2023-02-21T17:54:45.101Z,2.35
2023-02-21T17:56:09.930Z,2.08
2023-02-21T17:57:37.107Z,2.47
2023-02-21T17:59:00.549Z,2.63
2023-02-21T18:00:26.007Z,2.90
2023-02-21T18:01:49.468Z,2.88
2023-02-21T18:03:13.107Z,2.90
2023-02-21T18:04:36.870Z,2.40
2023-02-21T18:06:00.885Z,2.58
2023-02-21T18:07:26.601Z,2.22
2023-02-21T18:08:49.996Z,2.70
2023-02-21T18:10:13.527Z,2.75
2023-02-21T18:11:38.470Z,2.83
2023-02-21T18:13:01.867Z,2.35
2023-02-21T18:14:26.707Z,3.00
2023-02-21T18:15:50.278Z,2.45
2023-02-21T18:17:13.649Z,2.97
2023-02-21T18:18:37.360Z,2.35
2023-02-21T18:20:01.272Z,2.67
2023-02-21T18:21:25.009Z,2.83
2023-02-21T18:22:48.383Z,2.70
2023-02-21T18:24:12.740Z,2.25
2023-02-21T18:25:36.407Z,3.05
2023-02-21T18:27:01.357Z,2.80
2023-02-21T18:28:25.089Z,2.17
2023-02-21T18:29:48.669Z,2.38
2023-02-21T18:31:12.133Z,3.10
2023-02-21T18:32:38.394Z,3.08
2023-02-21T18:34:00.908Z,3.20
2023-02-21T18:35:24.321Z,3.03
2023-02-21T18:36:51.870Z,2.95
2023-02-21T18:38:15.991Z,2.90
2023-02-21T18:39:39.364Z,3.13
2023-02-21T18:41:02.800Z,2.80
2023-02-21T18:42:27.597Z,2.47
2023-02-21T18:43:51.286Z,3.00
2023-02-21T18:45:14.738Z,3.25
2023-02-21T18:46:40.913Z,3.33
2023-02-21T18:48:04.720Z,3.42
2023-02-21T18:49:28.565Z,3.72
2023-02-21T18:50:51.966Z,3.15
2023-02-21T18:52:16.711Z,3.83
2023-02-21T18:53:40.528Z,2.55
2023-02-21T18:55:04.218Z,3.70
2023-02-21T18:56:27.629Z,2.92
2023-02-21T18:57:52.382Z,2.40
2023-02-21T18:59:16.046Z,3.15
2023-02-21T19:00:41.544Z,2.55
2023-02-21T19:02:05.926Z,3.10
2023-02-21T19:03:29.366Z,2.63
2023-02-21T19:04:52.934Z,2.67
2023-02-21T19:06:18.412Z,2.95
2023-02-21T19:07:43.726Z,2.63
2023-02-21T19:09:07.126Z,3.25
2023-02-21T19:10:31.406Z,2.92
2023-02-21T19:11:55.175Z,2.85
2023-02-21T19:13:20.372Z,2.22
2023-02-21T19:14:43.889Z,2.97
2023-02-21T19:16:07.649Z,2.88
2023-02-21T19:17:31.203Z,2.83
2023-02-21T19:18:56.170Z,3.00
2023-02-21T19:20:20.412Z,3.10
2023-02-21T19:21:43.804Z,3.38
2023-02-21T19:23:08.078Z,3.17
2023-02-21T19:24:31.503Z,2.50
2023-02-21T19:25:55.318Z,3.28
2023-02-21T19:27:18.761Z,2.58
2023-02-21T19:28:43.740Z,3.85
2023-02-21T19:30:08.623Z,3.58
2023-02-21T19:31:32.148Z,3.08
2023-02-21T19:32:58.816Z,2.50
2023-02-21T19:34:22.313Z,3.03
2023-02-21T19:35:46.062Z,3.00
2023-02-21T19:37:09.490Z,3.33
2023-02-21T19:38:32.905Z,2.97
2023-02-21T19:39:57.947Z,2.95
2023-02-21T19:41:22.380Z,2.40